sensor_id;sensor_type;location;lat;lon;timestamp;P1;durP1;ratioP1;P2;durP2;ratioP2
4748;SDS011;2388;53.582;9.962;2022-09-13T00:00:47;2.40;;;2.30;;
4748;SDS011;2388;53.582;9.962;2022-09-13T00:03:14;3.00;;;2.80;;
4748;SDS011;2388;53.582;9.962;2022-09-13T00:05:40;3.80;;;2.40;;
4748;SDS011;2388;53.582;9.962;2022-09-13T00:08:06;3.00;;;2.40;;
4748;SDS011;2388;53.582;9.962;2022-09-13T00:10:32;2.97;;;2.70;;
4748;SDS011;2388;53.582;9.962;2022-09-13T00:12:59;2.53;;;2.43;;
4748;SDS011;2388;53.582;9.962;2022-09-13T00:15:25;3.40;;;3.20;;
4748;SDS011;2388;53.582;9.962;2022-09-13T00:17:52;2.70;;;2.60;;
4748;SDS011;2388;53.582;9.962;2022-09-13T00:20:17;3.07;;;2.77;;
4748;SDS011;2388;53.582;9.962;2022-09-13T00:22:43;2.70;;;2.50;;
4748;SDS011;2388;53.582;9.962;2022-09-13T00:25:08;2.80;;;2.60;;
4748;SDS011;2388;53.582;9.962;2022-09-13T00:27:34;3.10;;;2.80;;
4748;SDS011;2388;53.582;9.962;2022-09-13T00:30:00;2.70;;;2.50;;
4748;SDS011;2388;53.582;9.962;2022-09-13T00:32:29;2.93;;;2.70;;
4748;SDS011;2388;53.582;9.962;2022-09-13T00:34:55;2.87;;;2.70;;
4748;SDS011;2388;53.582;9.962;2022-09-13T00:37:21;2.87;;;2.73;;
4748;SDS011;2388;53.582;9.962;2022-09-13T00:39:46;4.10;;;3.07;;
4748;SDS011;2388;53.582;9.962;2022-09-13T00:42:12;3.23;;;3.00;;
4748;SDS011;2388;53.582;9.962;2022-09-13T00:47:33;4.57;;;3.73;;
4748;SDS011;2388;53.582;9.962;2022-09-13T00:52:44;3.67;;;3.47;;
4748;SDS011;2388;53.582;9.962;2022-09-13T00:55:18;3.47;;;3.17;;
4748;SDS011;2388;53.582;9.962;2022-09-13T00:57:49;4.80;;;4.30;;
4748;SDS011;2388;53.582;9.962;2022-09-13T01:00:16;3.67;;;3.37;;
4748;SDS011;2388;53.582;9.962;2022-09-13T01:02:49;5.50;;;3.60;;
4748;SDS011;2388;53.582;9.962;2022-09-13T01:05:25;4.70;;;4.30;;
4748;SDS011;2388;53.582;9.962;2022-09-13T01:07:54;4.80;;;4.33;;
4748;SDS011;2388;53.582;9.962;2022-09-13T01:10:20;8.60;;;4.27;;
4748;SDS011;2388;53.582;9.962;2022-09-13T01:12:54;4.97;;;4.47;;
4748;SDS011;2388;53.582;9.962;2022-09-13T01:15:24;6.07;;;5.23;;
4748;SDS011;2388;53.582;9.962;2022-09-13T01:17:50;4.40;;;4.10;;
4748;SDS011;2388;53.582;9.962;2022-09-13T01:20:17;4.70;;;3.90;;
4748;SDS011;2388;53.582;9.962;2022-09-13T01:25:57;4.33;;;3.93;;
4748;SDS011;2388;53.582;9.962;2022-09-13T01:34:42;7.87;;;4.53;;
4748;SDS011;2388;53.582;9.962;2022-09-13T01:37:32;4.37;;;3.97;;
4748;SDS011;2388;53.582;9.962;2022-09-13T01:40:22;6.00;;;4.50;;
4748;SDS011;2388;53.582;9.962;2022-09-13T01:45:53;5.77;;;4.77;;
4748;SDS011;2388;53.582;9.962;2022-09-13T01:48:52;5.53;;;4.73;;
4748;SDS011;2388;53.582;9.962;2022-09-13T01:51:32;4.70;;;4.30;;
4748;SDS011;2388;53.582;9.962;2022-09-13T01:54:08;4.37;;;4.03;;
4748;SDS011;2388;53.582;9.962;2022-09-13T01:56:55;5.00;;;4.50;;
4748;SDS011;2388;53.582;9.962;2022-09-13T01:59:28;4.73;;;4.33;;
4748;SDS011;2388;53.582;9.962;2022-09-13T02:02:22;5.03;;;4.57;;
4748;SDS011;2388;53.582;9.962;2022-09-13T02:05:09;5.03;;;4.53;;
4748;SDS011;2388;53.582;9.962;2022-09-13T02:07:46;5.70;;;4.53;;
4748;SDS011;2388;53.582;9.962;2022-09-13T02:10:26;5.37;;;4.90;;
4748;SDS011;2388;53.582;9.962;2022-09-13T02:12:57;5.63;;;5.13;;
4748;SDS011;2388;53.582;9.962;2022-09-13T02:15:33;5.37;;;4.87;;
4748;SDS011;2388;53.582;9.962;2022-09-13T02:18:06;12.27;;;5.37;;
4748;SDS011;2388;53.582;9.962;2022-09-13T02:20:35;6.30;;;5.70;;
4748;SDS011;2388;53.582;9.962;2022-09-13T02:23:09;5.50;;;5.00;;
4748;SDS011;2388;53.582;9.962;2022-09-13T02:25:39;7.10;;;5.47;;
4748;SDS011;2388;53.582;9.962;2022-09-13T02:28:08;8.60;;;5.20;;
4748;SDS011;2388;53.582;9.962;2022-09-13T02:30:39;7.30;;;5.20;;
4748;SDS011;2388;53.582;9.962;2022-09-13T02:33:12;5.23;;;4.73;;
4748;SDS011;2388;53.582;9.962;2022-09-13T02:35:42;6.57;;;5.10;;
4748;SDS011;2388;53.582;9.962;2022-09-13T02:38:15;6.73;;;5.37;;
4748;SDS011;2388;53.582;9.962;2022-09-13T02:40:48;5.37;;;4.93;;
4748;SDS011;2388;53.582;9.962;2022-09-13T02:43:41;5.57;;;5.10;;
4748;SDS011;2388;53.582;9.962;2022-09-13T02:46:13;5.27;;;4.80;;
4748;SDS011;2388;53.582;9.962;2022-09-13T02:49:25;5.97;;;5.40;;
4748;SDS011;2388;53.582;9.962;2022-09-13T02:51:56;6.30;;;5.70;;
4748;SDS011;2388;53.582;9.962;2022-09-13T02:54:44;8.53;;;5.30;;
4748;SDS011;2388;53.582;9.962;2022-09-13T02:57:18;7.70;;;5.73;;
4748;SDS011;2388;53.582;9.962;2022-09-13T02:59:47;5.73;;;5.20;;
4748;SDS011;2388;53.582;9.962;2022-09-13T03:02:14;9.70;;;5.57;;
4748;SDS011;2388;53.582;9.962;2022-09-13T03:04:41;5.87;;;5.43;;
4748;SDS011;2388;53.582;9.962;2022-09-13T03:07:10;8.00;;;5.30;;
4748;SDS011;2388;53.582;9.962;2022-09-13T03:09:53;7.17;;;5.97;;
4748;SDS011;2388;53.582;9.962;2022-09-13T03:15:30;6.40;;;5.47;;
4748;SDS011;2388;53.582;9.962;2022-09-13T03:21:06;7.87;;;6.50;;
4748;SDS011;2388;53.582;9.962;2022-09-13T03:27:06;7.67;;;6.70;;
4748;SDS011;2388;53.582;9.962;2022-09-13T03:30:01;6.83;;;6.23;;
4748;SDS011;2388;53.582;9.962;2022-09-13T03:38:05;6.70;;;6.10;;
4748;SDS011;2388;53.582;9.962;2022-09-13T03:40:41;8.40;;;7.03;;
4748;SDS011;2388;53.582;9.962;2022-09-13T03:43:17;11.07;;;7.30;;
4748;SDS011;2388;53.582;9.962;2022-09-13T03:45:54;11.67;;;7.67;;
4748;SDS011;2388;53.582;9.962;2022-09-13T03:48:23;9.70;;;8.43;;
4748;SDS011;2388;53.582;9.962;2022-09-13T03:50:49;9.60;;;8.27;;
4748;SDS011;2388;53.582;9.962;2022-09-13T03:53:18;13.60;;;8.07;;
4748;SDS011;2388;53.582;9.962;2022-09-13T03:55:47;9.93;;;8.57;;
4748;SDS011;2388;53.582;9.962;2022-09-13T03:58:13;10.30;;;9.30;;
4748;SDS011;2388;53.582;9.962;2022-09-13T04:00:40;11.40;;;8.77;;
4748;SDS011;2388;53.582;9.962;2022-09-13T04:03:07;10.57;;;9.13;;
4748;SDS011;2388;53.582;9.962;2022-09-13T04:05:33;11.17;;;9.50;;
4748;SDS011;2388;53.582;9.962;2022-09-13T04:07:59;11.03;;;9.63;;
4748;SDS011;2388;53.582;9.962;2022-09-13T04:10:29;11.80;;;10.20;;
4748;SDS011;2388;53.582;9.962;2022-09-13T04:12:56;11.97;;;10.10;;
4748;SDS011;2388;53.582;9.962;2022-09-13T04:15:23;16.23;;;11.13;;
4748;SDS011;2388;53.582;9.962;2022-09-13T04:17:49;14.07;;;10.80;;
4748;SDS011;2388;53.582;9.962;2022-09-13T04:20:15;16.50;;;12.03;;
4748;SDS011;2388;53.582;9.962;2022-09-13T04:22:40;15.70;;;12.07;;
4748;SDS011;2388;53.582;9.962;2022-09-13T04:25:06;15.97;;;11.53;;
4748;SDS011;2388;53.582;9.962;2022-09-13T04:27:32;17.03;;;11.57;;
4748;SDS011;2388;53.582;9.962;2022-09-13T04:29:59;15.87;;;12.23;;
4748;SDS011;2388;53.582;9.962;2022-09-13T04:32:25;18.50;;;12.70;;
4748;SDS011;2388;53.582;9.962;2022-09-13T04:34:51;17.30;;;13.77;;
4748;SDS011;2388;53.582;9.962;2022-09-13T04:37:16;17.70;;;13.70;;
4748;SDS011;2388;53.582;9.962;2022-09-13T04:39:42;16.00;;;12.73;;
4748;SDS011;2388;53.582;9.962;2022-09-13T04:42:07;21.13;;;14.43;;
4748;SDS011;2388;53.582;9.962;2022-09-13T04:44:35;16.47;;;12.97;;
4748;SDS011;2388;53.582;9.962;2022-09-13T04:47:00;16.33;;;13.33;;
4748;SDS011;2388;53.582;9.962;2022-09-13T04:49:26;21.20;;;13.77;;
4748;SDS011;2388;53.582;9.962;2022-09-13T04:51:52;18.73;;;15.37;;
4748;SDS011;2388;53.582;9.962;2022-09-13T04:54:17;22.73;;;15.13;;
4748;SDS011;2388;53.582;9.962;2022-09-13T04:56:43;24.57;;;15.40;;
4748;SDS011;2388;53.582;9.962;2022-09-13T04:59:09;21.53;;;15.97;;
4748;SDS011;2388;53.582;9.962;2022-09-13T05:01:35;18.20;;;15.00;;
4748;SDS011;2388;53.582;9.962;2022-09-13T05:04:01;23.70;;;16.50;;
4748;SDS011;2388;53.582;9.962;2022-09-13T05:06:27;22.13;;;15.10;;
4748;SDS011;2388;53.582;9.962;2022-09-13T05:08:54;23.03;;;16.77;;
4748;SDS011;2388;53.582;9.962;2022-09-13T05:11:24;23.20;;;16.57;;
4748;SDS011;2388;53.582;9.962;2022-09-13T05:13:50;22.60;;;16.47;;
4748;SDS011;2388;53.582;9.962;2022-09-13T05:16:18;22.23;;;17.47;;
4748;SDS011;2388;53.582;9.962;2022-09-13T05:18:44;57.77;;;35.90;;
4748;SDS011;2388;53.582;9.962;2022-09-13T05:21:10;32.80;;;21.17;;
4748;SDS011;2388;53.582;9.962;2022-09-13T05:23:35;22.20;;;18.73;;
4748;SDS011;2388;53.582;9.962;2022-09-13T05:26:03;23.20;;;18.60;;
4748;SDS011;2388;53.582;9.962;2022-09-13T05:28:31;27.67;;;19.10;;
4748;SDS011;2388;53.582;9.962;2022-09-13T05:31:00;24.80;;;17.80;;
4748;SDS011;2388;53.582;9.962;2022-09-13T05:33:29;24.23;;;18.33;;
4748;SDS011;2388;53.582;9.962;2022-09-13T05:35:56;26.83;;;18.47;;
4748;SDS011;2388;53.582;9.962;2022-09-13T05:38:22;22.00;;;18.40;;
4748;SDS011;2388;53.582;9.962;2022-09-13T05:40:52;27.40;;;18.70;;
4748;SDS011;2388;53.582;9.962;2022-09-13T05:43:20;26.97;;;18.10;;
4748;SDS011;2388;53.582;9.962;2022-09-13T05:45:47;25.70;;;17.97;;
4748;SDS011;2388;53.582;9.962;2022-09-13T05:48:12;24.00;;;18.87;;
4748;SDS011;2388;53.582;9.962;2022-09-13T05:50:38;23.17;;;17.13;;
4748;SDS011;2388;53.582;9.962;2022-09-13T05:53:04;27.20;;;17.23;;
4748;SDS011;2388;53.582;9.962;2022-09-13T05:55:30;26.27;;;18.37;;
4748;SDS011;2388;53.582;9.962;2022-09-13T05:57:56;24.07;;;17.17;;
4748;SDS011;2388;53.582;9.962;2022-09-13T06:00:22;24.77;;;17.07;;
4748;SDS011;2388;53.582;9.962;2022-09-13T06:02:48;21.60;;;16.33;;
4748;SDS011;2388;53.582;9.962;2022-09-13T06:05:13;23.97;;;18.50;;
4748;SDS011;2388;53.582;9.962;2022-09-13T06:07:39;30.00;;;18.33;;
4748;SDS011;2388;53.582;9.962;2022-09-13T06:10:06;62.00;;;45.60;;
4748;SDS011;2388;53.582;9.962;2022-09-13T06:12:33;36.43;;;28.03;;
4748;SDS011;2388;53.582;9.962;2022-09-13T06:14:58;28.80;;;20.67;;
4748;SDS011;2388;53.582;9.962;2022-09-13T06:17:24;26.27;;;18.80;;
4748;SDS011;2388;53.582;9.962;2022-09-13T06:19:49;25.30;;;18.63;;
4748;SDS011;2388;53.582;9.962;2022-09-13T06:22:15;29.20;;;22.97;;
4748;SDS011;2388;53.582;9.962;2022-09-13T06:24:41;44.37;;;29.30;;
4748;SDS011;2388;53.582;9.962;2022-09-13T06:27:06;39.73;;;26.67;;
4748;SDS011;2388;53.582;9.962;2022-09-13T06:29:31;39.00;;;23.57;;
4748;SDS011;2388;53.582;9.962;2022-09-13T06:31:57;32.13;;;19.67;;
4748;SDS011;2388;53.582;9.962;2022-09-13T06:34:22;30.50;;;19.93;;
4748;SDS011;2388;53.582;9.962;2022-09-13T06:36:48;27.47;;;19.50;;
4748;SDS011;2388;53.582;9.962;2022-09-13T06:39:13;22.70;;;17.50;;
4748;SDS011;2388;53.582;9.962;2022-09-13T06:41:39;28.77;;;18.57;;
4748;SDS011;2388;53.582;9.962;2022-09-13T06:44:05;26.10;;;18.30;;
4748;SDS011;2388;53.582;9.962;2022-09-13T06:46:32;26.17;;;18.70;;
4748;SDS011;2388;53.582;9.962;2022-09-13T06:48:59;21.87;;;17.13;;
4748;SDS011;2388;53.582;9.962;2022-09-13T06:51:26;24.73;;;16.93;;
4748;SDS011;2388;53.582;9.962;2022-09-13T06:53:53;29.10;;;17.60;;
4748;SDS011;2388;53.582;9.962;2022-09-13T06:56:24;24.43;;;16.20;;
4748;SDS011;2388;53.582;9.962;2022-09-13T06:58:54;19.77;;;15.77;;
4748;SDS011;2388;53.582;9.962;2022-09-13T07:01:25;23.37;;;16.07;;
4748;SDS011;2388;53.582;9.962;2022-09-13T07:04:00;20.60;;;15.67;;
4748;SDS011;2388;53.582;9.962;2022-09-13T07:06:51;27.50;;;15.70;;
4748;SDS011;2388;53.582;9.962;2022-09-13T07:09:17;25.90;;;17.13;;
4748;SDS011;2388;53.582;9.962;2022-09-13T07:11:46;22.77;;;17.20;;
4748;SDS011;2388;53.582;9.962;2022-09-13T07:14:13;23.00;;;16.30;;
4748;SDS011;2388;53.582;9.962;2022-09-13T07:16:41;23.90;;;16.30;;
4748;SDS011;2388;53.582;9.962;2022-09-13T07:19:10;21.47;;;15.20;;
4748;SDS011;2388;53.582;9.962;2022-09-13T07:21:37;27.87;;;15.67;;
4748;SDS011;2388;53.582;9.962;2022-09-13T07:24:03;21.90;;;14.93;;
4748;SDS011;2388;53.582;9.962;2022-09-13T07:26:29;26.40;;;14.23;;
4748;SDS011;2388;53.582;9.962;2022-09-13T07:28:56;20.67;;;14.90;;
4748;SDS011;2388;53.582;9.962;2022-09-13T07:33:53;20.83;;;11.50;;
4748;SDS011;2388;53.582;9.962;2022-09-13T07:36:23;21.37;;;9.90;;
4748;SDS011;2388;53.582;9.962;2022-09-13T07:38:50;15.33;;;9.90;;
4748;SDS011;2388;53.582;9.962;2022-09-13T07:41:16;17.03;;;11.37;;
4748;SDS011;2388;53.582;9.962;2022-09-13T07:43:43;13.17;;;9.77;;
4748;SDS011;2388;53.582;9.962;2022-09-13T07:46:10;14.07;;;10.73;;
4748;SDS011;2388;53.582;9.962;2022-09-13T07:48:38;14.60;;;10.77;;
4748;SDS011;2388;53.582;9.962;2022-09-13T07:51:06;20.90;;;13.37;;
4748;SDS011;2388;53.582;9.962;2022-09-13T07:53:34;21.20;;;10.17;;
4748;SDS011;2388;53.582;9.962;2022-09-13T07:56:01;19.30;;;10.60;;
4748;SDS011;2388;53.582;9.962;2022-09-13T07:58:32;12.27;;;8.03;;
4748;SDS011;2388;53.582;9.962;2022-09-13T08:01:00;13.97;;;8.30;;
4748;SDS011;2388;53.582;9.962;2022-09-13T08:03:39;10.10;;;6.93;;
4748;SDS011;2388;53.582;9.962;2022-09-13T08:06:05;9.23;;;7.17;;
4748;SDS011;2388;53.582;9.962;2022-09-13T08:08:32;9.23;;;5.70;;
4748;SDS011;2388;53.582;9.962;2022-09-13T08:10:58;8.43;;;4.80;;
4748;SDS011;2388;53.582;9.962;2022-09-13T08:13:25;7.10;;;3.73;;
4748;SDS011;2388;53.582;9.962;2022-09-13T08:15:52;16.07;;;9.43;;
4748;SDS011;2388;53.582;9.962;2022-09-13T08:18:18;14.00;;;5.17;;
4748;SDS011;2388;53.582;9.962;2022-09-13T08:20:44;8.87;;;3.93;;
4748;SDS011;2388;53.582;9.962;2022-09-13T08:23:10;7.93;;;4.90;;
4748;SDS011;2388;53.582;9.962;2022-09-13T08:25:36;9.70;;;3.70;;
4748;SDS011;2388;53.582;9.962;2022-09-13T08:28:07;6.40;;;3.03;;
4748;SDS011;2388;53.582;9.962;2022-09-13T08:30:35;5.00;;;2.50;;
4748;SDS011;2388;53.582;9.962;2022-09-13T08:33:02;5.93;;;2.20;;
4748;SDS011;2388;53.582;9.962;2022-09-13T08:35:28;11.63;;;2.80;;
4748;SDS011;2388;53.582;9.962;2022-09-13T08:37:54;5.63;;;2.60;;
4748;SDS011;2388;53.582;9.962;2022-09-13T08:40:21;3.83;;;2.20;;
4748;SDS011;2388;53.582;9.962;2022-09-13T08:45:28;3.33;;;2.10;;
4748;SDS011;2388;53.582;9.962;2022-09-13T08:50:25;5.33;;;1.50;;
4748;SDS011;2388;53.582;9.962;2022-09-13T08:52:57;6.07;;;1.50;;
4748;SDS011;2388;53.582;9.962;2022-09-13T08:58:38;5.07;;;1.30;;
4748;SDS011;2388;53.582;9.962;2022-09-13T09:06:28;11.80;;;1.30;;
4748;SDS011;2388;53.582;9.962;2022-09-13T09:09:03;6.23;;;1.10;;
4748;SDS011;2388;53.582;9.962;2022-09-13T09:11:48;4.70;;;1.23;;
4748;SDS011;2388;53.582;9.962;2022-09-13T09:16:59;5.67;;;1.20;;
4748;SDS011;2388;53.582;9.962;2022-09-13T09:21:58;8.03;;;1.47;;
4748;SDS011;2388;53.582;9.962;2022-09-13T09:24:28;7.80;;;1.10;;
4748;SDS011;2388;53.582;9.962;2022-09-13T09:26:57;5.10;;;1.07;;
4748;SDS011;2388;53.582;9.962;2022-09-13T09:29:26;4.20;;;0.80;;
4748;SDS011;2388;53.582;9.962;2022-09-13T09:35:17;6.27;;;1.10;;
4748;SDS011;2388;53.582;9.962;2022-09-13T09:37:32;3.03;;;0.80;;
4748;SDS011;2388;53.582;9.962;2022-09-13T09:40:01;8.57;;;1.47;;
4748;SDS011;2388;53.582;9.962;2022-09-13T09:42:32;5.57;;;1.07;;
4748;SDS011;2388;53.582;9.962;2022-09-13T09:45:23;11.60;;;1.10;;
4748;SDS011;2388;53.582;9.962;2022-09-13T09:47:59;2.93;;;1.13;;
4748;SDS011;2388;53.582;9.962;2022-09-13T09:50:30;5.77;;;2.30;;
4748;SDS011;2388;53.582;9.962;2022-09-13T09:53:02;6.37;;;1.57;;
4748;SDS011;2388;53.582;9.962;2022-09-13T09:58:40;3.07;;;1.20;;
4748;SDS011;2388;53.582;9.962;2022-09-13T10:01:15;4.23;;;0.97;;
4748;SDS011;2388;53.582;9.962;2022-09-13T10:03:47;9.00;;;5.87;;
4748;SDS011;2388;53.582;9.962;2022-09-13T10:06:43;4.57;;;2.20;;
4748;SDS011;2388;53.582;9.962;2022-09-13T10:17:17;5.13;;;0.97;;
4748;SDS011;2388;53.582;9.962;2022-09-13T10:19:58;6.33;;;0.70;;
4748;SDS011;2388;53.582;9.962;2022-09-13T10:22:28;3.07;;;0.90;;
4748;SDS011;2388;53.582;9.962;2022-09-13T10:25:12;1.17;;;0.70;;
4748;SDS011;2388;53.582;9.962;2022-09-13T10:27:40;2.17;;;1.20;;
4748;SDS011;2388;53.582;9.962;2022-09-13T10:30:29;4.10;;;0.77;;
4748;SDS011;2388;53.582;9.962;2022-09-13T10:33:03;10.63;;;1.20;;
4748;SDS011;2388;53.582;9.962;2022-09-13T10:35:29;3.43;;;1.60;;
4748;SDS011;2388;53.582;9.962;2022-09-13T10:37:56;3.27;;;1.00;;
4748;SDS011;2388;53.582;9.962;2022-09-13T10:40:28;3.03;;;0.77;;
4748;SDS011;2388;53.582;9.962;2022-09-13T10:43:02;5.47;;;0.83;;
4748;SDS011;2388;53.582;9.962;2022-09-13T10:45:39;3.83;;;0.80;;
4748;SDS011;2388;53.582;9.962;2022-09-13T10:48:13;7.20;;;0.87;;
4748;SDS011;2388;53.582;9.962;2022-09-13T10:50:40;4.67;;;1.03;;
4748;SDS011;2388;53.582;9.962;2022-09-13T10:53:30;3.27;;;1.10;;
4748;SDS011;2388;53.582;9.962;2022-09-13T10:56:04;8.27;;;1.10;;
4748;SDS011;2388;53.582;9.962;2022-09-13T10:58:42;4.33;;;1.13;;
4748;SDS011;2388;53.582;9.962;2022-09-13T11:06:28;4.73;;;0.70;;
4748;SDS011;2388;53.582;9.962;2022-09-13T11:09:48;3.83;;;0.70;;
4748;SDS011;2388;53.582;9.962;2022-09-13T11:12:43;2.70;;;0.87;;
4748;SDS011;2388;53.582;9.962;2022-09-13T11:15:28;2.77;;;0.90;;
4748;SDS011;2388;53.582;9.962;2022-09-13T11:18:03;3.00;;;1.33;;
4748;SDS011;2388;53.582;9.962;2022-09-13T11:20:40;4.57;;;0.93;;
4748;SDS011;2388;53.582;9.962;2022-09-13T11:29:00;6.90;;;1.70;;
4748;SDS011;2388;53.582;9.962;2022-09-13T11:31:41;3.13;;;0.80;;
4748;SDS011;2388;53.582;9.962;2022-09-13T11:34:17;5.53;;;1.73;;
4748;SDS011;2388;53.582;9.962;2022-09-13T11:40:21;5.40;;;1.03;;
4748;SDS011;2388;53.582;9.962;2022-09-13T11:43:28;7.73;;;1.70;;
4748;SDS011;2388;53.582;9.962;2022-09-13T11:48:58;3.90;;;1.23;;
4748;SDS011;2388;53.582;9.962;2022-09-13T11:51:37;4.50;;;1.63;;
4748;SDS011;2388;53.582;9.962;2022-09-13T11:54:10;5.20;;;1.33;;
4748;SDS011;2388;53.582;9.962;2022-09-13T11:56:51;2.53;;;1.00;;
4748;SDS011;2388;53.582;9.962;2022-09-13T11:59:40;4.60;;;0.77;;
4748;SDS011;2388;53.582;9.962;2022-09-13T12:04:52;4.00;;;2.97;;
4748;SDS011;2388;53.582;9.962;2022-09-13T12:12:39;4.33;;;1.23;;
4748;SDS011;2388;53.582;9.962;2022-09-13T12:15:09;11.00;;;2.33;;
4748;SDS011;2388;53.582;9.962;2022-09-13T12:17:41;4.00;;;1.57;;
4748;SDS011;2388;53.582;9.962;2022-09-13T12:20:15;1.63;;;0.70;;
4748;SDS011;2388;53.582;9.962;2022-09-13T12:23:02;4.47;;;0.80;;
4748;SDS011;2388;53.582;9.962;2022-09-13T12:25:56;5.77;;;0.90;;
4748;SDS011;2388;53.582;9.962;2022-09-13T12:28:24;6.63;;;1.03;;
4748;SDS011;2388;53.582;9.962;2022-09-13T12:31:06;4.50;;;1.17;;
4748;SDS011;2388;53.582;9.962;2022-09-13T12:33:40;7.43;;;1.33;;
4748;SDS011;2388;53.582;9.962;2022-09-13T12:41:42;8.03;;;1.00;;
4748;SDS011;2388;53.582;9.962;2022-09-13T12:47:18;8.60;;;0.90;;
4748;SDS011;2388;53.582;9.962;2022-09-13T12:55:24;5.90;;;1.37;;
4748;SDS011;2388;53.582;9.962;2022-09-13T12:58:15;4.07;;;0.90;;
4748;SDS011;2388;53.582;9.962;2022-09-13T13:01:07;5.47;;;0.97;;
4748;SDS011;2388;53.582;9.962;2022-09-13T13:03:47;3.63;;;0.90;;
4748;SDS011;2388;53.582;9.962;2022-09-13T13:09:30;7.70;;;1.37;;
4748;SDS011;2388;53.582;9.962;2022-09-13T13:12:06;6.87;;;1.80;;
4748;SDS011;2388;53.582;9.962;2022-09-13T13:23:25;8.00;;;1.07;;
4748;SDS011;2388;53.582;9.962;2022-09-13T13:31:07;6.13;;;1.03;;
4748;SDS011;2388;53.582;9.962;2022-09-13T13:34:25;6.10;;;1.50;;
4748;SDS011;2388;53.582;9.962;2022-09-13T13:36:28;6.33;;;1.20;;
4748;SDS011;2388;53.582;9.962;2022-09-13T13:39:00;2.93;;;0.60;;
4748;SDS011;2388;53.582;9.962;2022-09-13T13:44:16;6.23;;;1.00;;
4748;SDS011;2388;53.582;9.962;2022-09-13T13:46:47;6.60;;;0.80;;
4748;SDS011;2388;53.582;9.962;2022-09-13T13:52:55;3.33;;;1.47;;
4748;SDS011;2388;53.582;9.962;2022-09-13T13:55:03;9.47;;;1.20;;
4748;SDS011;2388;53.582;9.962;2022-09-13T14:00:53;6.17;;;1.13;;
4748;SDS011;2388;53.582;9.962;2022-09-13T14:03:25;5.20;;;0.90;;
4748;SDS011;2388;53.582;9.962;2022-09-13T14:06:18;5.37;;;0.87;;
4748;SDS011;2388;53.582;9.962;2022-09-13T14:11:58;6.87;;;1.00;;
4748;SDS011;2388;53.582;9.962;2022-09-13T14:19:51;7.83;;;1.00;;
4748;SDS011;2388;53.582;9.962;2022-09-13T14:22:26;4.23;;;0.87;;
4748;SDS011;2388;53.582;9.962;2022-09-13T14:24:53;7.73;;;1.33;;
4748;SDS011;2388;53.582;9.962;2022-09-13T14:27:28;6.60;;;1.53;;
4748;SDS011;2388;53.582;9.962;2022-09-13T14:29:58;4.53;;;0.87;;
4748;SDS011;2388;53.582;9.962;2022-09-13T14:32:29;8.40;;;1.53;;
4748;SDS011;2388;53.582;9.962;2022-09-13T14:35:00;3.73;;;1.43;;
4748;SDS011;2388;53.582;9.962;2022-09-13T14:37:30;9.40;;;1.20;;
4748;SDS011;2388;53.582;9.962;2022-09-13T14:42:39;4.53;;;1.60;;
4748;SDS011;2388;53.582;9.962;2022-09-13T14:45:11;10.93;;;0.90;;
4748;SDS011;2388;53.582;9.962;2022-09-13T14:47:44;5.97;;;1.47;;
4748;SDS011;2388;53.582;9.962;2022-09-13T14:50:20;5.13;;;1.30;;
4748;SDS011;2388;53.582;9.962;2022-09-13T14:52:51;6.70;;;1.30;;
4748;SDS011;2388;53.582;9.962;2022-09-13T14:55:30;8.03;;;1.30;;
4748;SDS011;2388;53.582;9.962;2022-09-13T14:58:05;12.07;;;3.70;;
4748;SDS011;2388;53.582;9.962;2022-09-13T15:00:44;11.07;;;4.70;;
4748;SDS011;2388;53.582;9.962;2022-09-13T15:03:14;9.07;;;3.93;;
4748;SDS011;2388;53.582;9.962;2022-09-13T15:05:48;8.50;;;1.43;;
4748;SDS011;2388;53.582;9.962;2022-09-13T15:10:58;6.00;;;2.23;;
4748;SDS011;2388;53.582;9.962;2022-09-13T15:13:29;5.47;;;1.10;;
4748;SDS011;2388;53.582;9.962;2022-09-13T15:15:55;10.40;;;2.00;;
4748;SDS011;2388;53.582;9.962;2022-09-13T15:18:30;5.73;;;1.13;;
4748;SDS011;2388;53.582;9.962;2022-09-13T15:23:36;4.13;;;1.67;;
4748;SDS011;2388;53.582;9.962;2022-09-13T15:26:09;5.90;;;1.23;;
4748;SDS011;2388;53.582;9.962;2022-09-13T15:28:48;5.40;;;1.30;;
4748;SDS011;2388;53.582;9.962;2022-09-13T15:31:33;5.37;;;1.30;;
4748;SDS011;2388;53.582;9.962;2022-09-13T15:36:45;4.90;;;1.27;;
4748;SDS011;2388;53.582;9.962;2022-09-13T15:39:41;8.27;;;1.70;;
4748;SDS011;2388;53.582;9.962;2022-09-13T15:42:08;5.10;;;1.10;;
4748;SDS011;2388;53.582;9.962;2022-09-13T15:44:34;7.33;;;1.47;;
4748;SDS011;2388;53.582;9.962;2022-09-13T15:46:59;8.00;;;1.27;;
4748;SDS011;2388;53.582;9.962;2022-09-13T15:49:28;4.47;;;0.90;;
4748;SDS011;2388;53.582;9.962;2022-09-13T15:51:56;7.50;;;2.03;;
4748;SDS011;2388;53.582;9.962;2022-09-13T15:54:25;4.30;;;1.10;;
4748;SDS011;2388;53.582;9.962;2022-09-13T15:57:05;7.17;;;1.00;;
4748;SDS011;2388;53.582;9.962;2022-09-13T15:59:40;6.13;;;1.60;;
4748;SDS011;2388;53.582;9.962;2022-09-13T16:02:16;9.53;;;1.80;;
4748;SDS011;2388;53.582;9.962;2022-09-13T16:04:53;6.00;;;1.83;;
4748;SDS011;2388;53.582;9.962;2022-09-13T16:07:19;7.47;;;1.77;;
4748;SDS011;2388;53.582;9.962;2022-09-13T16:09:45;6.53;;;1.07;;
4748;SDS011;2388;53.582;9.962;2022-09-13T16:12:12;4.93;;;1.27;;
4748;SDS011;2388;53.582;9.962;2022-09-13T16:14:38;3.83;;;0.57;;
4748;SDS011;2388;53.582;9.962;2022-09-13T16:17:11;8.30;;;2.37;;
4748;SDS011;2388;53.582;9.962;2022-09-13T16:19:39;8.80;;;3.40;;
4748;SDS011;2388;53.582;9.962;2022-09-13T16:22:05;21.33;;;5.63;;
4748;SDS011;2388;53.582;9.962;2022-09-13T16:24:31;5.60;;;1.60;;
4748;SDS011;2388;53.582;9.962;2022-09-13T16:26:58;2.23;;;1.50;;
4748;SDS011;2388;53.582;9.962;2022-09-13T16:29:25;12.73;;;6.67;;
4748;SDS011;2388;53.582;9.962;2022-09-13T16:31:51;3.33;;;1.73;;
4748;SDS011;2388;53.582;9.962;2022-09-13T16:34:16;3.57;;;1.73;;
4748;SDS011;2388;53.582;9.962;2022-09-13T16:36:42;9.60;;;2.93;;
4748;SDS011;2388;53.582;9.962;2022-09-13T16:39:07;2.83;;;1.33;;
4748;SDS011;2388;53.582;9.962;2022-09-13T16:41:33;7.43;;;1.30;;
4748;SDS011;2388;53.582;9.962;2022-09-13T16:43:58;6.50;;;4.03;;
4748;SDS011;2388;53.582;9.962;2022-09-13T16:46:25;2.40;;;1.33;;
4748;SDS011;2388;53.582;9.962;2022-09-13T16:48:52;2.60;;;1.00;;
4748;SDS011;2388;53.582;9.962;2022-09-13T16:51:18;7.93;;;1.70;;
4748;SDS011;2388;53.582;9.962;2022-09-13T16:53:44;4.23;;;0.90;;
4748;SDS011;2388;53.582;9.962;2022-09-13T16:56:14;2.00;;;0.60;;
4748;SDS011;2388;53.582;9.962;2022-09-13T16:58:41;6.40;;;0.60;;
4748;SDS011;2388;53.582;9.962;2022-09-13T17:01:10;4.07;;;0.70;;
4748;SDS011;2388;53.582;9.962;2022-09-13T17:03:37;0.90;;;0.50;;
4748;SDS011;2388;53.582;9.962;2022-09-13T17:06:04;5.37;;;0.70;;
4748;SDS011;2388;53.582;9.962;2022-09-13T17:08:32;5.27;;;0.90;;
4748;SDS011;2388;53.582;9.962;2022-09-13T17:10:59;2.53;;;1.00;;
4748;SDS011;2388;53.582;9.962;2022-09-13T17:13:28;5.60;;;0.80;;
4748;SDS011;2388;53.582;9.962;2022-09-13T17:15:53;4.60;;;1.03;;
4748;SDS011;2388;53.582;9.962;2022-09-13T17:18:19;2.37;;;0.93;;
4748;SDS011;2388;53.582;9.962;2022-09-13T17:20:45;3.40;;;0.83;;
4748;SDS011;2388;53.582;9.962;2022-09-13T17:23:12;3.47;;;1.00;;
4748;SDS011;2388;53.582;9.962;2022-09-13T17:25:39;2.70;;;0.90;;
4748;SDS011;2388;53.582;9.962;2022-09-13T17:28:07;5.73;;;0.97;;
4748;SDS011;2388;53.582;9.962;2022-09-13T17:30:32;4.13;;;1.97;;
4748;SDS011;2388;53.582;9.962;2022-09-13T17:32:58;3.20;;;1.00;;
4748;SDS011;2388;53.582;9.962;2022-09-13T17:35:24;4.40;;;1.27;;
4748;SDS011;2388;53.582;9.962;2022-09-13T17:37:49;4.50;;;1.00;;
4748;SDS011;2388;53.582;9.962;2022-09-13T17:40:15;2.60;;;1.13;;
4748;SDS011;2388;53.582;9.962;2022-09-13T17:42:40;6.70;;;2.97;;
4748;SDS011;2388;53.582;9.962;2022-09-13T17:45:06;5.40;;;2.10;;
4748;SDS011;2388;53.582;9.962;2022-09-13T17:47:32;2.83;;;1.03;;
4748;SDS011;2388;53.582;9.962;2022-09-13T17:49:58;3.53;;;1.50;;
4748;SDS011;2388;53.582;9.962;2022-09-13T17:52:23;3.37;;;0.83;;
4748;SDS011;2388;53.582;9.962;2022-09-13T17:54:49;9.40;;;1.17;;
4748;SDS011;2388;53.582;9.962;2022-09-13T17:57:14;3.40;;;1.10;;
4748;SDS011;2388;53.582;9.962;2022-09-13T17:59:40;7.10;;;2.40;;
4748;SDS011;2388;53.582;9.962;2022-09-13T18:02:05;6.37;;;1.20;;
4748;SDS011;2388;53.582;9.962;2022-09-13T18:04:31;4.80;;;1.47;;